createdAt,value
2022-08-05T00:00:17.229Z,22.46
2022-08-05T00:02:51.786Z,22.36
2022-08-05T00:06:03.154Z,22.27
2022-08-05T00:08:32.432Z,22.24
2022-08-05T00:10:57.180Z,22.38
2022-08-05T00:13:39.538Z,22.14
2022-08-05T00:16:09.585Z,22.06
2022-08-05T00:18:39.592Z,21.95
2022-08-05T00:21:08.235Z,22.09
2022-08-05T00:23:45.881Z,22.09
2022-08-05T00:26:20.580Z,22.11
2022-08-05T00:28:47.206Z,22.13
2022-08-05T00:31:16.299Z,22.09
2022-08-05T00:34:55.990Z,21.96
2022-08-05T00:37:11.495Z,21.81
2022-08-05T00:39:16.541Z,21.74
2022-08-05T00:41:55.010Z,21.67
2022-08-05T00:44:23.170Z,21.82
2022-08-05T00:46:54.315Z,21.76
2022-08-05T00:49:32.498Z,21.79
2022-08-05T00:52:00.154Z,21.86
2022-08-05T00:54:28.103Z,21.68
2022-08-05T00:56:57.047Z,21.68
2022-08-05T00:59:23.945Z,21.67
2022-08-05T01:01:51.176Z,21.54
2022-08-05T01:04:20.378Z,21.61
2022-08-05T01:06:53.797Z,21.45
2022-08-05T01:09:22.302Z,21.56
2022-08-05T01:11:52.103Z,21.53
2022-08-05T01:14:33.244Z,21.50
2022-08-05T01:17:05.525Z,21.42
2022-08-05T01:20:01.338Z,21.41
2022-08-05T01:22:34.549Z,21.36
2022-08-05T01:25:40.726Z,21.18
2022-08-05T01:28:15.790Z,20.96
2022-08-05T01:30:55.278Z,20.97
2022-08-05T01:33:26.236Z,20.93
2022-08-05T01:35:57.451Z,20.92
2022-08-05T01:38:29.280Z,20.93
2022-08-05T01:41:01.939Z,20.85
2022-08-05T01:43:30.391Z,20.67
2022-08-05T01:45:58.436Z,20.79
2022-08-05T01:48:36.316Z,20.89
2022-08-05T01:51:12.275Z,20.76
2022-08-05T01:53:58.048Z,20.78
2022-08-05T01:58:09.315Z,20.78
2022-08-05T01:59:21.877Z,20.61
2022-08-05T02:01:52.682Z,20.63
2022-08-05T02:04:24.239Z,20.71
2022-08-05T02:06:52.807Z,20.66
2022-08-05T02:09:20.659Z,20.50
2022-08-05T02:12:19.677Z,20.49
2022-08-05T02:15:12.193Z,20.44
2022-08-05T02:18:30.790Z,20.48
2022-08-05T02:20:49.640Z,20.45
2022-08-05T02:23:20.158Z,20.46
2022-08-05T02:25:50.569Z,20.50
2022-08-05T02:28:29.356Z,20.44
2022-08-05T02:31:01.043Z,20.35
2022-08-05T02:33:36.183Z,20.23
2022-08-05T02:36:09.432Z,20.29
2022-08-05T02:38:37.843Z,20.23
2022-08-05T02:41:16.984Z,20.25
2022-08-05T02:44:06.137Z,20.28
2022-08-05T02:46:33.444Z,20.34
2022-08-05T02:49:01.458Z,20.21
2022-08-05T02:52:03.853Z,20.27
2022-08-05T02:54:35.580Z,20.31
2022-08-05T02:57:03.084Z,20.32
2022-08-05T02:59:47.801Z,20.24
2022-08-05T03:02:20.556Z,20.32
2022-08-05T03:04:53.095Z,20.32
2022-08-05T03:07:40.314Z,20.35
2022-08-05T03:10:08.864Z,20.22
2022-08-05T03:12:38.342Z,20.23
2022-08-05T03:15:07.690Z,20.14
2022-08-05T03:17:41.426Z,20.14
2022-08-05T03:20:10.164Z,20.24
2022-08-05T03:22:37.074Z,20.19
2022-08-05T03:25:31.653Z,20.15
2022-08-05T03:27:58.048Z,20.02
2022-08-05T03:30:33.670Z,20.08
2022-08-05T03:33:03.009Z,20.04
2022-08-05T03:35:30.984Z,19.99
2022-08-05T03:38:02.650Z,19.97
2022-08-05T03:40:32.120Z,19.85
2022-08-05T03:43:15.890Z,19.96
2022-08-05T03:45:57.728Z,19.92
2022-08-05T03:48:25.613Z,19.87
2022-08-05T03:52:35.266Z,19.77
2022-08-05T03:55:53.614Z,19.71
2022-08-05T03:56:42.186Z,19.79
2022-08-05T03:59:13.825Z,19.82
2022-08-05T04:01:49.322Z,19.75
2022-08-05T04:04:21.099Z,19.77
2022-08-05T04:06:50.989Z,19.75
2022-08-05T04:09:26.127Z,19.88
2022-08-05T04:11:56.816Z,19.86
2022-08-05T04:14:30.192Z,19.84
2022-08-05T04:16:58.918Z,19.92
2022-08-05T04:19:25.706Z,19.96
2022-08-05T04:22:08.433Z,20.01
2022-08-05T04:24:44.700Z,20.03
2022-08-05T04:27:19.274Z,19.83
2022-08-05T04:30:00.010Z,20.09
2022-08-05T04:32:30.823Z,20.07
2022-08-05T04:35:00.112Z,20.13
2022-08-05T04:38:02.260Z,20.19
2022-08-05T04:40:13.369Z,20.19
2022-08-05T04:42:46.399Z,20.30
2022-08-05T04:45:14.134Z,20.26
2022-08-05T04:47:49.676Z,20.33
2022-08-05T04:50:37.302Z,20.28
2022-08-05T04:53:04.372Z,20.25
2022-08-05T04:56:14.587Z,20.43
2022-08-05T04:58:21.517Z,20.56
2022-08-05T05:00:50.689Z,20.62
2022-08-05T05:03:20.339Z,20.68
2022-08-05T05:06:39.760Z,20.62
2022-08-05T05:08:33.714Z,20.71
2022-08-05T05:11:00.302Z,21.04
2022-08-05T05:13:27.017Z,21.34
2022-08-05T05:16:02.121Z,22.01
2022-08-05T05:18:33.833Z,22.86
2022-08-05T05:21:02.097Z,23.66
2022-08-05T05:23:38.987Z,23.99
2022-08-05T05:26:16.629Z,24.62
2022-08-05T05:28:45.001Z,25.11
2022-08-05T05:31:12.510Z,25.28
2022-08-05T05:33:58.620Z,25.26
2022-08-05T05:36:28.325Z,24.81
2022-08-05T05:38:55.648Z,24.54
2022-08-05T05:41:22.244Z,24.24
2022-08-05T05:43:57.598Z,23.90
2022-08-05T05:46:27.034Z,23.68
2022-08-05T05:48:53.827Z,23.54
2022-08-05T05:51:25.547Z,23.90
2022-08-05T05:53:58.644Z,24.29
2022-08-05T05:56:33.813Z,24.44
2022-08-05T05:59:05.506Z,24.11
2022-08-05T06:01:37.654Z,23.89
2022-08-05T06:04:14.334Z,23.83
2022-08-05T06:06:43.020Z,23.66
2022-08-05T06:09:18.086Z,23.68
2022-08-05T06:11:59.633Z,24.48
2022-08-05T06:14:29.238Z,25.23
2022-08-05T06:16:56.816Z,24.95
2022-08-05T06:19:26.126Z,25.64
2022-08-05T06:22:06.445Z,26.71
2022-08-05T06:24:34.777Z,27.65
2022-08-05T06:27:02.043Z,28.32
2022-08-05T06:29:48.964Z,28.66
2022-08-05T06:32:25.393Z,29.18
2022-08-05T06:34:57.290Z,29.25
2022-08-05T06:37:56.390Z,29.56
2022-08-05T06:40:18.468Z,29.55
2022-08-05T06:42:51.960Z,30.23
2022-08-05T06:45:20.690Z,30.57
2022-08-05T06:48:47.377Z,30.88
2022-08-05T06:50:34.796Z,31.18
2022-08-05T06:53:11.722Z,31.34
2022-08-05T06:55:48.353Z,31.19
2022-08-05T06:58:29.186Z,30.83
2022-08-05T07:01:01.700Z,31.12
2022-08-05T07:03:32.743Z,30.51
2022-08-05T07:06:05.674Z,29.72
2022-08-05T07:08:41.884Z,29.68
2022-08-05T07:11:15.497Z,29.27
2022-08-05T07:14:01.496Z,29.14
2022-08-05T07:18:08.176Z,29.05
2022-08-05T07:22:29.031Z,28.78
2022-08-05T07:25:21.956Z,28.81
2022-08-05T07:27:57.543Z,28.78
2022-08-05T07:30:32.598Z,28.80
2022-08-05T07:33:09.022Z,28.73
2022-08-05T07:36:03.792Z,28.74
2022-08-05T07:38:26.430Z,28.78
2022-08-05T07:42:07.743Z,29.04
2022-08-05T07:43:53.014Z,29.13
2022-08-05T07:46:25.121Z,29.18
2022-08-05T07:49:02.328Z,28.83
2022-08-05T07:51:37.609Z,28.93
2022-08-05T07:54:15.166Z,29.19
2022-08-05T07:57:01.345Z,29.44
2022-08-05T07:59:38.402Z,29.80
2022-08-05T08:02:16.134Z,30.41
2022-08-05T08:04:47.402Z,31.06
2022-08-05T08:07:15.050Z,31.79
2022-08-05T08:09:42.382Z,32.02
2022-08-05T08:12:27.564Z,32.67
2022-08-05T08:14:56.668Z,33.12
2022-08-05T08:17:28.893Z,33.24
2022-08-05T08:20:22.067Z,33.49
2022-08-05T08:22:43.561Z,33.80
2022-08-05T08:25:16.479Z,33.80
2022-08-05T08:27:47.948Z,33.64
2022-08-05T08:30:32.416Z,32.72
2022-08-05T08:33:04.359Z,33.02
2022-08-05T08:35:40.944Z,33.10
2022-08-05T08:38:11.600Z,33.80
2022-08-05T08:40:50.456Z,33.40
2022-08-05T08:45:04.479Z,33.28
2022-08-05T08:46:09.973Z,33.42
2022-08-05T08:49:07.511Z,33.68
2022-08-05T08:52:05.817Z,33.78
2022-08-05T08:54:21.331Z,33.83
2022-08-05T08:56:54.334Z,34.26
2022-08-05T08:59:27.871Z,34.44
2022-08-05T09:02:05.975Z,34.97
2022-08-05T09:04:58.620Z,35.08
2022-08-05T09:07:29.164Z,35.16
2022-08-05T09:10:06.522Z,35.47
2022-08-05T09:12:34.607Z,35.34
2022-08-05T09:15:06.382Z,35.36
2022-08-05T09:17:42.283Z,34.88
2022-08-05T09:20:12.921Z,34.24
2022-08-05T09:23:18.451Z,33.92
2022-08-05T09:26:01.957Z,33.45
2022-08-05T09:28:33.210Z,33.62
2022-08-05T09:31:22.988Z,33.25
2022-08-05T09:33:56.237Z,33.38
2022-08-05T09:36:27.943Z,33.19
2022-08-05T09:39:03.813Z,33.38
2022-08-05T09:42:07.734Z,33.44
2022-08-05T09:44:39.421Z,33.07
2022-08-05T09:47:21.578Z,33.65
2022-08-05T09:50:01.315Z,33.09
2022-08-05T09:52:36.709Z,33.51
2022-08-05T09:55:56.349Z,34.00
2022-08-05T09:58:13.321Z,34.08
2022-08-05T10:00:40.196Z,34.80
2022-08-05T10:03:11.527Z,35.00
2022-08-05T10:05:38.909Z,35.00
2022-08-05T10:08:36.586Z,35.35
2022-08-05T10:10:54.656Z,35.25
2022-08-05T10:13:45.627Z,35.12
2022-08-05T10:16:41.876Z,35.02
2022-08-05T10:19:23.870Z,34.87
2022-08-05T10:21:59.144Z,34.96
2022-08-05T10:24:27.431Z,35.32
2022-08-05T10:26:56.754Z,34.96
2022-08-05T10:30:06.480Z,35.38
2022-08-05T10:33:01.286Z,35.59
2022-08-05T10:35:07.006Z,35.71
2022-08-05T10:37:40.474Z,35.47
2022-08-05T10:40:29.796Z,35.56
2022-08-05T10:43:07.790Z,35.13
2022-08-05T10:45:40.009Z,35.78
2022-08-05T10:48:52.519Z,35.77
2022-08-05T10:51:28.827Z,35.79
2022-08-05T10:54:01.071Z,35.47
2022-08-05T10:56:45.003Z,35.67
2022-08-05T11:00:03.155Z,35.62
2022-08-05T11:02:14.546Z,34.99
2022-08-05T11:04:57.047Z,35.04
2022-08-05T11:07:32.911Z,34.89
2022-08-05T11:10:27.227Z,34.98
2022-08-05T11:12:57.312Z,34.94
2022-08-05T11:15:59.099Z,34.66
2022-08-05T11:18:29.689Z,34.33
2022-08-05T11:20:57.564Z,34.55
2022-08-05T11:24:03.149Z,34.19
2022-08-05T11:26:32.199Z,33.89
2022-08-05T11:29:06.573Z,33.84
2022-08-05T11:31:56.648Z,33.43
2022-08-05T11:34:51.231Z,33.89
2022-08-05T11:38:36.405Z,33.59
2022-08-05T11:41:01.282Z,33.67
2022-08-05T11:44:08.496Z,33.72
2022-08-05T11:47:09.344Z,34.03
2022-08-05T11:49:27.910Z,33.83
2022-08-05T11:51:54.857Z,33.80
2022-08-05T11:54:33.131Z,33.51
2022-08-05T11:57:08.470Z,33.85
2022-08-05T11:59:49.851Z,34.02
2022-08-05T12:02:23.926Z,34.21
2022-08-05T12:04:59.178Z,34.49
2022-08-05T12:08:03.398Z,34.36
2022-08-05T12:10:19.655Z,33.63
2022-08-05T12:12:58.359Z,34.09
2022-08-05T12:15:35.682Z,34.20
2022-08-05T12:18:11.937Z,34.33
2022-08-05T12:20:39.312Z,34.32
2022-08-05T12:23:10.413Z,34.60
2022-08-05T12:25:56.821Z,34.89
2022-08-05T12:28:37.041Z,34.75
2022-08-05T12:31:05.560Z,34.76
2022-08-05T12:33:36.955Z,35.22
2022-08-05T12:36:09.306Z,35.31
2022-08-05T12:38:41.200Z,35.07
2022-08-05T12:41:14.026Z,34.79
2022-08-05T12:44:03.101Z,34.72
2022-08-05T12:46:31.845Z,34.56
2022-08-05T12:49:13.672Z,34.96
2022-08-05T12:52:12.955Z,34.26
2022-08-05T12:54:51.559Z,34.99
2022-08-05T12:57:19.385Z,35.40
2022-08-05T13:01:57.235Z,35.04
2022-08-05T13:02:40.229Z,35.45
2022-08-05T13:05:08.425Z,35.22
2022-08-05T13:07:57.826Z,35.38
2022-08-05T13:10:26.988Z,35.14
2022-08-05T13:12:58.082Z,35.23
2022-08-05T13:15:41.294Z,35.16
2022-08-05T13:18:09.113Z,35.50
2022-08-05T13:20:40.445Z,35.61
2022-08-05T13:23:07.621Z,35.38
2022-08-05T13:25:52.701Z,35.40
2022-08-05T13:28:22.290Z,35.39
2022-08-05T13:30:48.955Z,35.38
2022-08-05T13:34:21.665Z,35.34
2022-08-05T13:36:06.465Z,35.42
2022-08-05T13:38:38.536Z,35.42
2022-08-05T13:41:12.944Z,35.39
2022-08-05T13:43:45.924Z,35.60
2022-08-05T13:46:43.825Z,35.60
2022-08-05T13:49:11.780Z,35.68
2022-08-05T13:51:41.551Z,35.15
2022-08-05T13:54:13.641Z,35.42
2022-08-05T13:56:45.075Z,35.44
2022-08-05T13:59:21.348Z,35.03
2022-08-05T14:01:58.189Z,34.92
2022-08-05T14:04:54.750Z,35.07
2022-08-05T14:07:25.398Z,35.41
2022-08-05T14:10:19.116Z,35.53
2022-08-05T14:12:55.982Z,35.42
2022-08-05T14:16:04.817Z,35.30
2022-08-05T14:18:17.818Z,35.12
2022-08-05T14:20:49.011Z,34.90
2022-08-05T14:23:24.033Z,35.09
2022-08-05T14:25:54.604Z,35.52
2022-08-05T14:28:26.999Z,35.13
2022-08-05T14:30:55.106Z,35.35
2022-08-05T14:33:22.567Z,35.18
2022-08-05T14:35:51.688Z,35.08
2022-08-05T14:38:32.146Z,35.15
2022-08-05T14:41:06.171Z,35.21
2022-08-05T14:43:59.539Z,35.38
2022-08-05T14:46:29.596Z,35.34
2022-08-05T14:48:59.535Z,35.30
2022-08-05T14:51:31.177Z,35.15
2022-08-05T14:54:26.435Z,35.22
2022-08-05T14:56:46.864Z,34.91
2022-08-05T14:59:14.366Z,35.23
2022-08-05T15:01:48.373Z,34.74
2022-08-05T15:04:20.703Z,34.92
2022-08-05T15:06:52.411Z,35.12
2022-08-05T15:09:52.876Z,34.52
2022-08-05T15:12:07.046Z,35.04
2022-08-05T15:14:48.136Z,34.93
2022-08-05T15:17:45.656Z,34.97
2022-08-05T15:20:04.724Z,34.99
2022-08-05T15:22:31.403Z,35.19
2022-08-05T15:24:59.278Z,35.04
2022-08-05T15:27:26.536Z,35.08
2022-08-05T15:29:59.266Z,35.14
2022-08-05T15:32:28.570Z,35.08
2022-08-05T15:34:57.366Z,35.11
2022-08-05T15:38:34.387Z,34.98
2022-08-05T15:41:00.017Z,35.16
2022-08-05T15:43:09.181Z,35.17
2022-08-05T15:45:45.703Z,35.03
2022-08-05T15:48:14.235Z,34.76
2022-08-05T15:50:43.889Z,34.72
2022-08-05T15:53:13.218Z,34.78
2022-08-05T15:56:04.275Z,34.83
2022-08-05T15:58:29.213Z,34.75
2022-08-05T16:01:04.340Z,34.94
2022-08-05T16:03:43.101Z,35.06
2022-08-05T16:06:11.526Z,35.09
2022-08-05T16:08:38.815Z,35.21
2022-08-05T16:11:07.266Z,35.25
2022-08-05T16:13:35.169Z,35.06
2022-08-05T16:16:03.892Z,34.97
2022-08-05T16:18:32.960Z,34.91
2022-08-05T16:21:04.233Z,34.93
2022-08-05T16:23:53.076Z,34.88
2022-08-05T16:26:18.060Z,34.18
2022-08-05T16:28:44.663Z,34.09
2022-08-05T16:31:11.451Z,33.92
2022-08-05T16:33:41.681Z,33.85
2022-08-05T16:36:09.330Z,33.89
2022-08-05T16:38:35.958Z,33.88
2022-08-05T16:41:21.616Z,33.79
2022-08-05T16:43:56.458Z,34.03
2022-08-05T16:46:24.683Z,33.83
2022-08-05T16:48:51.858Z,34.23
2022-08-05T16:51:19.511Z,34.04
2022-08-05T16:54:03.913Z,33.98
2022-08-05T16:56:35.119Z,34.00
2022-08-05T16:59:08.299Z,33.91
2022-08-05T17:01:54.024Z,33.81
2022-08-05T17:04:26.425Z,33.73
2022-08-05T17:06:55.450Z,33.46
2022-08-05T17:09:22.892Z,33.46
2022-08-05T17:11:51.557Z,33.25
2022-08-05T17:14:22.382Z,33.30
2022-08-05T17:17:04.369Z,33.04
2022-08-05T17:19:31.267Z,33.05
2022-08-05T17:21:58.568Z,32.99
2022-08-05T17:24:35.136Z,32.77
2022-08-05T17:27:07.064Z,32.93
2022-08-05T17:29:41.037Z,32.60
2022-08-05T17:32:17.396Z,32.39
2022-08-05T17:34:47.913Z,32.41
2022-08-05T17:37:39.698Z,31.93
2022-08-05T17:40:02.209Z,31.97
2022-08-05T17:42:32.245Z,31.86
2022-08-05T17:45:17.668Z,31.76
2022-08-05T17:47:52.929Z,31.80
2022-08-05T17:50:28.178Z,31.65
2022-08-05T17:52:59.184Z,31.58
2022-08-05T17:55:34.363Z,31.41
2022-08-05T17:58:12.272Z,31.26
2022-08-05T18:00:47.567Z,31.26
2022-08-05T18:06:12.299Z,30.83
2022-08-05T18:08:45.804Z,30.83
2022-08-05T18:11:23.752Z,30.86
2022-08-05T18:13:53.324Z,30.60
2022-08-05T18:16:20.345Z,30.75
2022-08-05T18:18:47.970Z,30.66
2022-08-05T18:21:21.145Z,30.20
2022-08-05T18:23:50.106Z,30.09
2022-08-05T18:26:20.569Z,29.65
2022-08-05T18:28:47.174Z,29.70
2022-08-05T18:31:15.849Z,29.91
2022-08-05T18:33:47.184Z,29.77
2022-08-05T18:36:16.812Z,29.65
2022-08-05T18:38:46.155Z,29.38
2022-08-05T18:41:55.218Z,29.31
2022-08-05T18:44:05.757Z,29.32
2022-08-05T18:46:33.371Z,29.22
2022-08-05T18:49:20.622Z,29.13
2022-08-05T18:52:08.864Z,29.04
2022-08-05T18:54:41.451Z,29.05
2022-08-05T18:57:15.408Z,28.92
2022-08-05T19:00:01.887Z,28.90
2022-08-05T19:02:29.657Z,28.95
2022-08-05T19:05:02.477Z,28.82
2022-08-05T19:07:47.964Z,28.59
2022-08-05T19:10:28.134Z,28.64
2022-08-05T19:12:56.633Z,28.47
2022-08-05T19:15:56.825Z,28.53
2022-08-05T19:18:20.921Z,28.55
2022-08-05T19:20:51.579Z,28.46
2022-08-05T19:24:06.252Z,28.36
2022-08-05T19:26:09.239Z,28.46
2022-08-05T19:28:42.099Z,28.32
2022-08-05T19:31:13.595Z,28.48
2022-08-05T19:33:48.435Z,28.53
2022-08-05T19:36:29.417Z,28.34
2022-08-05T19:38:58.771Z,28.51
2022-08-05T19:41:58.093Z,28.41
2022-08-05T19:44:14.261Z,28.38
2022-08-05T19:46:41.474Z,28.37
2022-08-05T19:49:16.384Z,28.34
2022-08-05T19:52:08.239Z,28.42
2022-08-05T19:54:32.894Z,28.12
2022-08-05T19:57:02.668Z,28.17
2022-08-05T19:59:53.914Z,28.06
2022-08-05T20:02:23.277Z,28.08
2022-08-05T20:04:50.001Z,28.23
2022-08-05T20:07:47.981Z,27.89
2022-08-05T20:10:13.533Z,27.90
2022-08-05T20:12:47.777Z,27.88
2022-08-05T20:15:48.972Z,27.75
2022-08-05T20:18:09.756Z,27.54
2022-08-05T20:20:50.981Z,27.58
2022-08-05T20:23:17.750Z,27.54
2022-08-05T20:25:47.511Z,27.50
2022-08-05T20:28:15.893Z,27.47
2022-08-05T20:30:42.696Z,27.16
2022-08-05T20:33:09.690Z,27.08
2022-08-05T20:35:40.345Z,26.79
2022-08-05T20:38:14.390Z,26.74
2022-08-05T20:40:55.535Z,26.67
2022-08-05T20:43:57.678Z,26.72
2022-08-05T20:46:12.428Z,26.42
2022-08-05T20:48:45.346Z,26.35
2022-08-05T20:51:17.622Z,25.95
2022-08-05T20:53:44.342Z,25.82
2022-08-05T20:56:28.678Z,25.80
2022-08-05T20:59:04.025Z,25.62
2022-08-05T21:01:41.253Z,25.37
2022-08-05T21:04:10.664Z,25.55
2022-08-05T21:06:45.746Z,25.75
2022-08-05T21:09:14.922Z,25.71
2022-08-05T21:12:06.970Z,25.43
2022-08-05T21:14:34.700Z,25.30
2022-08-05T21:17:01.669Z,25.21
2022-08-05T21:19:29.920Z,24.99
2022-08-05T21:22:14.526Z,25.21
2022-08-05T21:24:41.185Z,24.99
2022-08-05T21:27:09.290Z,24.97
2022-08-05T21:29:40.689Z,24.77
2022-08-05T21:32:07.699Z,24.94
2022-08-05T21:34:35.515Z,24.88
2022-08-05T21:37:02.574Z,24.56
2022-08-05T21:39:29.544Z,24.55
2022-08-05T21:42:01.711Z,24.50
2022-08-05T21:44:30.288Z,24.43
2022-08-05T21:46:58.109Z,24.24
2022-08-05T21:49:58.523Z,24.34
2022-08-05T21:52:21.814Z,23.95
2022-08-05T21:54:55.334Z,23.97
2022-08-05T21:57:31.545Z,23.71
2022-08-05T22:00:06.387Z,23.73
2022-08-05T22:02:34.617Z,23.71
2022-08-05T22:05:01.315Z,23.50
2022-08-05T22:07:39.977Z,23.54
2022-08-05T22:10:17.677Z,23.31
2022-08-05T22:12:53.435Z,23.13
2022-08-05T22:16:00.341Z,22.98
2022-08-05T22:18:08.636Z,22.92
2022-08-05T22:20:38.989Z,22.81
2022-08-05T22:24:01.025Z,22.83
2022-08-05T22:26:30.591Z,22.46
2022-08-05T22:28:57.282Z,22.38
2022-08-05T22:31:24.999Z,22.36
2022-08-05T22:34:01.461Z,22.15
2022-08-05T22:36:29.163Z,21.97
2022-08-05T22:38:56.763Z,21.92
2022-08-05T22:41:26.338Z,21.63
2022-08-05T22:44:12.108Z,22.04
2022-08-05T22:46:40.652Z,22.00
2022-08-05T22:49:23.110Z,21.75
2022-08-05T22:52:04.700Z,21.84
2022-08-05T22:54:35.057Z,21.87
2022-08-05T22:57:02.864Z,21.84
2022-08-05T22:59:44.273Z,21.74
2022-08-05T23:02:16.902Z,21.51
2022-08-05T23:04:51.648Z,21.44
2022-08-05T23:07:22.127Z,20.89
2022-08-05T23:09:57.759Z,20.84
2022-08-05T23:12:32.875Z,20.66
2022-08-05T23:15:03.201Z,20.64
2022-08-05T23:17:35.037Z,20.39
2022-08-05T23:20:17.536Z,20.54
2022-08-05T23:22:47.305Z,20.52
2022-08-05T23:25:16.994Z,20.01
2022-08-05T23:28:02.205Z,20.32
2022-08-05T23:30:31.185Z,19.88
2022-08-05T23:32:58.854Z,19.98
2022-08-05T23:35:28.646Z,20.03
2022-08-05T23:38:01.385Z,20.05
2022-08-05T23:40:28.056Z,19.80
2022-08-05T23:42:54.805Z,19.87
2022-08-05T23:45:23.610Z,19.83
2022-08-05T23:47:53.653Z,19.66
2022-08-05T23:50:26.156Z,19.65
2022-08-05T23:52:55.390Z,19.71
2022-08-05T23:55:22.539Z,19.64
2022-08-05T23:57:57.515Z,19.53
